Time;durP1;ratioP1;P1;durP2;ratioP2;P2;SDS_P1;SDS_P2;PMS_P1;PMS_P2;Temp;Humidity;BMP_temperature;BMP_pressure;BME280_temperature;BME280_humidity;BME280_pressure;Samples;Min_cycle;Max_cycle;Signal;HPM_P1;HPM_P2
2021/01/23 00:00:47;;;;;;;0.47;0.47;;;1.60;99.90;;;;;;6223369;23;20256;-82
2021/01/23 00:03:13;;;;;;;0.70;0.70;;;1.60;99.90;;;;;;6222884;23;20676;-83
2021/01/23 00:05:39;;;;;;;0.80;0.80;;;1.60;99.90;;;;;;6223436;23;20181;-81
2021/01/23 00:08:06;;;;;;;0.80;0.80;;;1.60;99.90;;;;;;6222927;23;20182;-81
2021/01/23 00:10:33;;;;;;;0.80;0.80;;;1.60;99.90;;;;;;6223088;23;20685;-83
2021/01/23 00:12:59;;;;;;;2.70;0.60;;;1.60;99.90;;;;;;6222812;23;20181;-83
2021/01/23 00:15:25;;;;;;;0.60;0.60;;;1.60;99.90;;;;;;6221796;23;20217;-83
2021/01/23 00:17:51;;;;;;;0.80;0.80;;;1.60;99.90;;;;;;6224407;23;20178;-83
2021/01/23 00:20:18;;;;;;;0.50;0.50;;;1.70;99.90;;;;;;6225819;23;20216;-83
2021/01/23 00:22:44;;;;;;;1.05;0.95;;;1.70;99.90;;;;;;6221008;23;20182;-83
2021/01/23 00:25:11;;;;;;;0.90;0.90;;;1.60;99.90;;;;;;6220579;23;20174;-83
2021/01/23 00:27:39;;;;;;;0.75;0.75;;;1.70;99.90;;;;;;6221087;23;20186;-83
2021/01/23 00:30:07;;;;;;;1.20;0.77;;;1.60;99.90;;;;;;6220901;23;20210;-83
2021/01/23 00:32:33;;;;;;;0.95;0.95;;;1.60;99.90;;;;;;6222717;23;20193;-83
2021/01/23 00:34:59;;;;;;;1.80;1.10;;;1.70;99.90;;;;;;6220897;23;20182;-84
2021/01/23 00:37:25;;;;;;;0.98;0.98;;;1.60;99.90;;;;;;6221255;23;20518;-83
2021/01/23 00:39:52;;;;;;;0.70;0.70;;;1.70;99.90;;;;;;6223516;23;20202;-83
2021/01/23 00:42:18;;;;;;;1.17;1.17;;;1.70;99.90;;;;;;6223812;23;20178;-84
2021/01/23 00:44:45;;;;;;;0.82;0.82;;;1.70;99.90;;;;;;6227784;23;20214;-81
2021/01/23 00:47:11;;;;;;;1.05;1.05;;;1.70;99.90;;;;;;6228321;23;20178;-84
2021/01/23 00:49:37;;;;;;;1.25;1.10;;;1.70;99.90;;;;;;6229305;23;20220;-84
2021/01/23 00:52:04;;;;;;;1.48;1.38;;;1.80;99.90;;;;;;6230022;23;20629;-84
2021/01/23 00:54:30;;;;;;;1.40;1.33;;;1.70;99.90;;;;;;6229700;23;20208;-84
2021/01/23 00:56:56;;;;;;;1.45;1.35;;;1.70;99.90;;;;;;6229844;23;20202;-84
2021/01/23 00:59:22;;;;;;;1.50;1.23;;;1.70;99.90;;;;;;6230166;23;20205;-84
2021/01/23 01:01:49;;;;;;;0.95;0.95;;;1.60;99.90;;;;;;6229271;23;20196;-82
2021/01/23 01:04:16;;;;;;;1.35;1.25;;;1.60;99.90;;;;;;6229034;23;20182;-83
2021/01/23 01:06:42;;;;;;;1.10;1.00;;;1.60;99.90;;;;;;6229530;23;20242;-84
2021/01/23 01:09:08;;;;;;;2.30;2.10;;;1.50;99.90;;;;;;6223783;23;20202;-83
2021/01/23 01:11:34;;;;;;;2.40;2.05;;;1.50;99.90;;;;;;6222813;23;20245;-82
2021/01/23 01:14:01;;;;;;;2.67;2.40;;;1.60;99.90;;;;;;6223652;23;20662;-83
2021/01/23 01:16:27;;;;;;;3.50;3.20;;;1.60;99.90;;;;;;6225303;23;20213;-82
2021/01/23 01:18:54;;;;;;;2.10;2.00;;;1.60;99.90;;;;;;6222494;23;20236;-83
2021/01/23 01:21:20;;;;;;;2.60;2.40;;;1.60;99.90;;;;;;6224062;23;20178;-82
2021/01/23 01:23:46;;;;;;;2.72;2.53;;;1.50;99.90;;;;;;6222848;23;20178;-84
2021/01/23 01:26:13;;;;;;;3.30;3.00;;;1.60;99.90;;;;;;6223154;23;20396;-83
2021/01/23 01:28:39;;;;;;;2.17;1.95;;;1.60;99.90;;;;;;6227280;23;20196;-84
2021/01/23 01:31:05;;;;;;;2.38;2.10;;;1.60;99.90;;;;;;6227595;23;20181;-82
2021/01/23 01:33:31;;;;;;;3.42;3.13;;;1.60;99.90;;;;;;6227949;23;20257;-83
2021/01/23 01:35:58;;;;;;;3.42;3.13;;;1.60;99.90;;;;;;6223255;23;20202;-84
2021/01/23 01:38:25;;;;;;;2.50;2.30;;;1.60;99.90;;;;;;6221011;23;20228;-83
2021/01/23 01:40:51;;;;;;;3.28;2.97;;;1.60;99.90;;;;;;6220844;23;20577;-84
2021/01/23 01:43:18;;;;;;;3.38;3.03;;;1.50;99.90;;;;;;6220457;23;20228;-83
2021/01/23 01:45:46;;;;;;;2.85;2.60;;;1.50;99.90;;;;;;6219831;23;20177;-83
2021/01/23 01:48:12;;;;;;;2.05;1.95;;;1.50;99.90;;;;;;6220840;23;20181;-83
2021/01/23 01:50:39;;;;;;;3.13;2.80;;;1.50;99.90;;;;;;6222711;23;20205;-83
2021/01/23 01:53:07;;;;;;;3.53;2.78;;;1.40;99.90;;;;;;6222815;23;20208;-82
2021/01/23 01:55:34;;;;;;;2.70;2.45;;;1.50;99.90;;;;;;6217203;23;20572;-83
2021/01/23 01:58:01;;;;;;;5.45;3.60;;;1.50;99.90;;;;;;6216440;23;20182;-83
2021/01/23 02:00:27;;;;;;;2.92;2.72;;;1.50;99.90;;;;;;6218825;23;20201;-83
2021/01/23 02:03:29;;;;;;;2.83;2.35;;;1.50;99.90;;;;;;6219653;23;20223;-84
2021/01/23 02:06:04;;;;;;;3.20;2.95;;;1.40;99.90;;;;;;6181377;23;20197;-83
2021/01/23 02:08:37;;;;;;;2.60;2.40;;;1.40;99.90;;;;;;6220567;23;20605;-83
2021/01/23 02:11:14;;;;;;;2.30;2.20;;;1.40;99.90;;;;;;6235973;23;20245;-82
2021/01/23 02:13:45;;;;;;;1.70;1.60;;;1.40;99.90;;;;;;6237269;23;20166;-81
2021/01/23 02:16:17;;;;;;;4.07;2.50;;;1.30;99.90;;;;;;6227716;23;20182;-84
2021/01/23 02:18:53;;;;;;;2.67;2.47;;;1.40;99.90;;;;;;6225350;23;20595;-82
2021/01/23 02:21:40;;;;;;;4.22;3.10;;;1.40;99.90;;;;;;6226695;23;20162;-80
2021/01/23 02:24:08;;;;;;;2.53;2.38;;;1.40;99.90;;;;;;6227094;23;20166;-81
2021/01/23 02:26:44;;;;;;;2.65;2.45;;;1.30;99.90;;;;;;6227166;23;20178;-84
2021/01/23 02:29:16;;;;;;;4.30;2.45;;;1.40;99.90;;;;;;6226397;23;20202;-82
2021/01/23 02:31:46;;;;;;;1.80;1.70;;;1.40;99.90;;;;;;6227673;23;20167;-82
2021/01/23 02:34:18;;;;;;;2.45;2.25;;;1.40;99.90;;;;;;6226821;23;20163;-81
2021/01/23 02:36:46;;;;;;;4.03;3.55;;;1.30;99.90;;;;;;6228621;23;20182;-82
2021/01/23 02:39:13;;;;;;;3.95;3.67;;;1.30;99.90;;;;;;6227318;23;20198;-83
2021/01/23 02:41:40;;;;;;;3.55;3.25;;;1.40;99.90;;;;;;6222556;23;20178;-83
2021/01/23 02:44:06;;;;;;;2.72;2.53;;;1.50;99.90;;;;;;6216436;23;20236;-83
2021/01/23 02:46:33;;;;;;;2.92;2.70;;;1.50;99.90;;;;;;6217865;23;20181;-82
2021/01/23 02:49:00;;;;;;;3.28;3.03;;;1.50;99.90;;;;;;6224307;23;20224;-82
2021/01/23 02:51:36;;;;;;;3.55;3.25;;;1.50;99.90;;;;;;6229694;23;20172;-84
2021/01/23 02:54:08;;;;;;;2.42;2.30;;;1.50;99.90;;;;;;6230162;23;20172;-82
2021/01/23 02:56:36;;;;;;;2.60;2.40;;;1.50;99.90;;;;;;6231347;23;20182;-81
2021/01/23 02:59:04;;;;;;;4.15;2.13;;;1.50;99.90;;;;;;6230563;23;20208;-83
2021/01/23 03:01:35;;;;;;;2.53;2.33;;;1.40;99.90;;;;;;6230603;23;20182;-84
2021/01/23 03:04:03;;;;;;;2.72;2.53;;;1.40;99.90;;;;;;6230534;23;20189;-82
2021/01/23 03:06:30;;;;;;;1.85;1.75;;;1.50;99.90;;;;;;6230869;23;20177;-82
2021/01/23 03:08:56;;;;;;;2.70;2.40;;;1.50;99.90;;;;;;6231373;23;20202;-83
2021/01/23 03:11:23;;;;;;;2.90;2.70;;;1.40;99.90;;;;;;6230705;23;20704;-84
2021/01/23 03:13:49;;;;;;;3.25;2.65;;;1.40;99.90;;;;;;6230906;23;20653;-82
2021/01/23 03:16:15;;;;;;;2.72;2.53;;;1.40;99.90;;;;;;6230485;23;20198;-82
2021/01/23 03:18:41;;;;;;;2.65;2.45;;;1.50;99.90;;;;;;6231171;23;20186;-82
2021/01/23 03:21:08;;;;;;;2.90;2.58;;;1.50;99.90;;;;;;6231380;23;20186;-83
2021/01/23 03:23:35;;;;;;;2.75;2.55;;;1.50;99.90;;;;;;6230567;23;20184;-82
2021/01/23 03:26:01;;;;;;;7.78;3.28;;;1.50;99.90;;;;;;6230087;23;20178;-84
2021/01/23 03:28:27;;;;;;;3.28;3.08;;;1.40;99.90;;;;;;6224942;23;20178;-80
2021/01/23 03:30:53;;;;;;;3.50;3.08;;;1.40;99.90;;;;;;6217694;23;20221;-81
2021/01/23 03:33:19;;;;;;;3.05;2.83;;;1.40;99.90;;;;;;6216106;23;20244;-81
2021/01/23 03:35:46;;;;;;;3.55;3.13;;;1.50;99.90;;;;;;6216089;23;20194;-81
2021/01/23 03:38:13;;;;;;;4.43;3.53;;;1.50;99.90;;;;;;6216060;23;20184;-82
2021/01/23 03:40:39;;;;;;;3.85;3.53;;;1.40;99.90;;;;;;6217983;23;20201;-81
2021/01/23 03:43:05;;;;;;;3.60;3.30;;;1.50;99.90;;;;;;6217421;23;20174;-82
2021/01/23 03:45:31;;;;;;;3.55;3.25;;;1.50;99.90;;;;;;6219434;23;20189;-82
2021/01/23 03:47:58;;;;;;;4.63;3.30;;;1.50;99.90;;;;;;6223979;23;20193;-81
2021/01/23 03:50:24;;;;;;;3.83;3.53;;;1.50;99.90;;;;;;6224495;23;20206;-82
2021/01/23 03:52:50;;;;;;;3.90;3.10;;;1.50;99.90;;;;;;6229415;23;20560;-83
2021/01/23 03:55:17;;;;;;;3.35;3.00;;;1.50;99.90;;;;;;6229370;23;20174;-83
2021/01/23 03:57:43;;;;;;;4.13;3.72;;;1.50;99.90;;;;;;6230940;23;20178;-84
2021/01/23 04:00:11;;;;;;;2.78;2.25;;;1.50;99.90;;;;;;6229951;23;20208;-84
2021/01/23 04:02:37;;;;;;;4.15;2.40;;;1.50;99.90;;;;;;6228986;23;20178;-83
2021/01/23 04:05:05;;;;;;;3.40;2.78;;;1.50;99.90;;;;;;6229850;23;20182;-84
2021/01/23 04:07:31;;;;;;;2.78;2.58;;;1.50;99.90;;;;;;6229824;23;20181;-83
2021/01/23 04:09:57;;;;;;;4.00;2.40;;;1.50;99.90;;;;;;6230820;23;20198;-84
2021/01/23 04:12:24;;;;;;;3.38;2.65;;;1.60;99.90;;;;;;6230303;23;20182;-84
2021/01/23 04:14:51;;;;;;;3.92;3.50;;;1.60;99.90;;;;;;6230646;23;20190;-84
2021/01/23 04:17:17;;;;;;;2.95;2.75;;;1.60;99.90;;;;;;6231040;23;20216;-83
2021/01/23 04:19:43;;;;;;;3.05;2.20;;;1.60;99.90;;;;;;6230354;23;20677;-84
2021/01/23 04:22:10;;;;;;;3.45;2.67;;;1.60;99.90;;;;;;6231347;23;20188;-83
2021/01/23 04:24:36;;;;;;;3.78;2.90;;;1.60;99.90;;;;;;6232427;23;20182;-84
2021/01/23 04:27:02;;;;;;;3.20;2.90;;;1.70;99.90;;;;;;6232657;23;20181;-84
2021/01/23 04:29:30;;;;;;;2.50;2.30;;;1.70;99.90;;;;;;6233038;23;20255;-83
2021/01/23 04:31:56;;;;;;;6.80;4.75;;;1.70;99.90;;;;;;6231849;23;20182;-84
2021/01/23 04:34:22;;;;;;;4.15;3.28;;;1.90;99.90;;;;;;6232453;23;20185;-83
2021/01/23 04:36:49;;;;;;;4.78;2.95;;;2.00;99.90;;;;;;6232766;23;20549;-82
2021/01/23 04:39:17;;;;;;;3.33;2.80;;;2.20;99.90;;;;;;6231626;23;20201;-84
2021/01/23 04:41:43;;;;;;;3.65;3.28;;;2.30;99.90;;;;;;6231702;23;20178;-83
2021/01/23 04:44:09;;;;;;;2.83;2.58;;;2.30;99.90;;;;;;6232805;23;20169;-84
2021/01/23 04:46:38;;;;;;;3.28;2.97;;;2.30;99.90;;;;;;6231666;23;20745;-84
2021/01/23 04:49:04;;;;;;;2.40;2.20;;;2.30;99.90;;;;;;6232102;23;20179;-84
2021/01/23 04:51:30;;;;;;;3.55;2.60;;;2.40;99.90;;;;;;6231240;23;20162;-83
2021/01/23 04:53:56;;;;;;;2.53;2.20;;;2.50;99.90;;;;;;6231464;23;20200;-84
2021/01/23 04:56:26;;;;;;;3.60;3.30;;;2.60;99.90;;;;;;6231139;23;20216;-84
2021/01/23 04:58:52;;;;;;;3.10;2.40;;;2.70;99.90;;;;;;6231625;23;20170;-84
2021/01/23 05:01:18;;;;;;;3.70;3.00;;;2.70;99.90;;;;;;6231308;23;20202;-84
2021/01/23 05:03:56;;;;;;;3.47;3.17;;;2.70;99.90;;;;;;6230769;23;20369;-84
2021/01/23 05:06:22;;;;;;;5.78;5.30;;;2.80;99.90;;;;;;6230563;23;20204;-84
2021/01/23 05:08:49;;;;;;;2.40;2.20;;;2.80;99.90;;;;;;6231226;23;20178;-84
2021/01/23 05:11:15;;;;;;;3.17;2.60;;;2.80;99.90;;;;;;6230310;23;20206;-84
2021/01/23 05:14:01;;;;;;;2.30;2.10;;;2.80;99.90;;;;;;6229847;23;20609;-83
2021/01/23 05:16:27;;;;;;;3.45;2.28;;;2.80;99.90;;;;;;6205790;23;20199;-84
2021/01/23 05:19:01;;;;;;;1.85;1.60;;;2.80;99.90;;;;;;6230022;23;20184;-83
2021/01/23 05:21:33;;;;;;;2.95;2.25;;;2.80;99.90;;;;;;6230192;23;20166;-83
2021/01/23 05:24:11;;;;;;;2.20;1.90;;;2.80;99.90;;;;;;6229385;23;20671;-84
2021/01/23 05:26:39;;;;;;;2.78;2.35;;;2.80;99.90;;;;;;6230124;23;20800;-84
2021/01/23 05:29:10;;;;;;;2.40;2.20;;;2.80;99.90;;;;;;6230066;23;20178;-84
2021/01/23 05:31:37;;;;;;;2.50;2.30;;;2.80;99.90;;;;;;6229864;23;20173;-84
2021/01/23 05:34:26;;;;;;;3.95;2.80;;;2.80;99.90;;;;;;6229589;23;20648;-84
2021/01/23 05:36:52;;;;;;;2.72;2.53;;;2.80;99.90;;;;;;6229817;23;20186;-82
2021/01/23 05:39:19;;;;;;;3.10;2.80;;;2.80;99.90;;;;;;6229273;23;20241;-83
2021/01/23 05:42:04;;;;;;;3.42;2.85;;;2.70;99.90;;;;;;6229408;23;20188;-84
2021/01/23 05:44:30;;;;;;;2.55;2.10;;;2.70;99.90;;;;;;6228634;23;20509;-82
2021/01/23 05:46:56;;;;;;;4.38;3.97;;;2.70;99.90;;;;;;6229466;23;20178;-83
2021/01/23 05:49:23;;;;;;;2.70;2.50;;;2.70;99.90;;;;;;6228655;23;20215;-84
2021/01/23 05:51:51;;;;;;;3.40;3.20;;;2.80;99.90;;;;;;6228967;23;20170;-84
2021/01/23 05:54:17;;;;;;;2.80;2.58;;;2.80;99.90;;;;;;6228147;23;20174;-84
2021/01/23 05:56:44;;;;;;;3.40;3.10;;;2.70;99.90;;;;;;6227819;23;20581;-84
2021/01/23 05:59:10;;;;;;;2.85;2.65;;;2.70;99.90;;;;;;6227682;23;20184;-83
2021/01/23 06:01:39;;;;;;;2.67;2.47;;;2.70;99.90;;;;;;6228243;23;20208;-82
2021/01/23 06:04:06;;;;;;;5.38;3.05;;;2.70;99.90;;;;;;6228282;23;20178;-84
2021/01/23 06:06:46;;;;;;;5.03;2.80;;;2.70;99.90;;;;;;6228021;23;20174;-84
2021/01/23 06:09:34;;;;;;;3.70;3.20;;;2.70;99.90;;;;;;6227762;23;20181;-83
2021/01/23 06:12:00;;;;;;;3.47;2.90;;;2.70;99.90;;;;;;6226820;23;20166;-84
2021/01/23 06:14:39;;;;;;;3.50;3.20;;;2.70;99.90;;;;;;6226714;23;20178;-84
2021/01/23 06:17:05;;;;;;;2.92;2.72;;;2.70;99.90;;;;;;6226900;23;20197;-84
2021/01/23 06:19:42;;;;;;;3.55;3.25;;;2.70;99.90;;;;;;6226632;23;20198;-84
2021/01/23 06:22:10;;;;;;;3.40;3.10;;;2.70;99.90;;;;;;6226624;23;20236;-84
2021/01/23 06:24:58;;;;;;;4.75;3.88;;;2.70;99.90;;;;;;6227029;23;20410;-84
2021/01/23 06:27:47;;;;;;;3.90;3.60;;;2.60;99.90;;;;;;6226639;23;20168;-84
2021/01/23 06:30:34;;;;;;;4.32;3.70;;;2.60;99.90;;;;;;6226301;23;20202;-82
2021/01/23 06:33:20;;;;;;;3.85;3.40;;;2.60;99.90;;;;;;6214163;23;20189;-84
2021/01/23 06:35:46;;;;;;;3.55;3.25;;;2.60;99.90;;;;;;6224541;23;20231;-84
2021/01/23 06:38:13;;;;;;;3.97;3.47;;;2.60;99.90;;;;;;6225884;23;20188;-84
2021/01/23 06:40:39;;;;;;;3.50;3.25;;;2.50;99.90;;;;;;6225920;23;20202;-84
2021/01/23 06:43:06;;;;;;;4.30;3.75;;;2.50;99.90;;;;;;6225255;23;20207;-84
2021/01/23 06:45:34;;;;;;;3.90;3.30;;;2.40;99.90;;;;;;6225208;23;20182;-84
2021/01/23 06:48:01;;;;;;;5.65;3.50;;;2.40;99.90;;;;;;6225708;23;20182;-84
2021/01/23 06:50:29;;;;;;;3.58;3.22;;;2.40;99.90;;;;;;6224474;23;20236;-84
2021/01/23 06:52:56;;;;;;;4.82;4.00;;;2.40;99.90;;;;;;6225537;23;20197;-83
2021/01/23 06:55:49;;;;;;;3.85;3.38;;;2.40;99.90;;;;;;6224899;23;20182;-84
2021/01/23 06:58:26;;;;;;;4.05;3.58;;;2.30;99.90;;;;;;6225473;23;20178;-82
2021/01/23 07:00:54;;;;;;;4.22;3.83;;;2.40;99.90;;;;;;6225075;23;20536;-84
2021/01/23 07:03:22;;;;;;;3.65;3.35;;;2.40;99.90;;;;;;6224703;23;20710;-84
2021/01/23 07:05:53;;;;;;;5.25;3.90;;;2.40;99.90;;;;;;6225057;23;20178;-84
2021/01/23 07:08:27;;;;;;;4.15;3.80;;;2.40;99.90;;;;;;6225411;23;20170;-83
2021/01/23 07:11:11;;;;;;;5.30;3.90;;;2.40;99.90;;;;;;6226813;23;20741;-84
2021/01/23 07:13:39;;;;;;;4.82;3.45;;;2.30;99.90;;;;;;6226679;23;20186;-82
2021/01/23 07:16:06;;;;;;;4.20;3.80;;;2.30;99.90;;;;;;6226538;23;20217;-82
2021/01/23 07:18:32;;;;;;;4.20;3.80;;;2.30;99.90;;;;;;6226489;23;20182;-84
2021/01/23 07:21:01;;;;;;;5.03;4.22;;;2.30;99.90;;;;;;6225669;23;20202;-84
2021/01/23 07:23:28;;;;;;;4.60;4.10;;;2.30;99.90;;;;;;6226641;23;20657;-84
2021/01/23 07:25:59;;;;;;;3.67;3.38;;;2.20;99.90;;;;;;6226548;23;20174;-84
2021/01/23 07:28:28;;;;;;;4.70;4.30;;;2.30;99.90;;;;;;6225250;23;20154;-84
2021/01/23 07:30:54;;;;;;;4.90;4.40;;;2.20;99.90;;;;;;6225447;23;20228;-84
2021/01/23 07:33:31;;;;;;;8.07;3.45;;;2.30;99.90;;;;;;6225138;23;20180;-82
2021/01/23 07:35:57;;;;;;;4.97;4.57;;;2.30;99.90;;;;;;6226403;23;20197;-84
2021/01/23 07:38:24;;;;;;;6.15;4.60;;;2.30;99.90;;;;;;6226044;23;20235;-84
2021/01/23 07:40:54;;;;;;;6.13;5.40;;;2.20;99.90;;;;;;6224782;23;20280;-84
2021/01/23 07:43:21;;;;;;;5.55;4.93;;;2.30;99.90;;;;;;6225651;23;20178;-84
2021/01/23 07:45:48;;;;;;;4.80;4.20;;;2.40;99.90;;;;;;6226662;23;20227;-84
2021/01/23 07:48:14;;;;;;;5.45;4.82;;;2.30;99.90;;;;;;6224650;23;20182;-81
2021/01/23 07:50:42;;;;;;;6.88;4.28;;;2.40;99.90;;;;;;6226820;23;20706;-83
2021/01/23 07:53:15;;;;;;;4.72;4.13;;;2.50;99.90;;;;;;6225432;23;20182;-83
2021/01/23 07:55:43;;;;;;;4.43;4.00;;;2.50;99.90;;;;;;6225737;23;20245;-84
2021/01/23 07:58:11;;;;;;;6.25;5.13;;;2.50;99.90;;;;;;6225859;23;20182;-84
2021/01/23 08:00:37;;;;;;;3.53;3.10;;;2.50;99.90;;;;;;6225544;23;20216;-84
2021/01/23 08:03:05;;;;;;;6.82;5.18;;;2.50;99.90;;;;;;6225457;23;20511;-83
2021/01/23 08:05:45;;;;;;;6.05;5.07;;;2.50;99.90;;;;;;6225394;23;20182;-84
2021/01/23 08:08:12;;;;;;;6.85;4.65;;;2.60;99.90;;;;;;6225972;23;20214;-84
2021/01/23 08:10:39;;;;;;;6.05;4.55;;;2.60;99.90;;;;;;6225407;23;20290;-83
2021/01/23 08:13:07;;;;;;;5.78;5.07;;;2.60;99.90;;;;;;6225591;23;20182;-84
2021/01/23 08:15:34;;;;;;;5.40;4.70;;;2.70;99.90;;;;;;6224259;23;20253;-84
2021/01/23 08:18:02;;;;;;;5.03;3.95;;;2.70;99.90;;;;;;6224295;23;20202;-83
2021/01/23 08:20:33;;;;;;;4.70;4.18;;;2.70;99.90;;;;;;6224983;23;20221;-84
2021/01/23 08:23:06;;;;;;;5.13;3.53;;;2.70;99.90;;;;;;6224647;23;20192;-85
2021/01/23 08:25:34;;;;;;;4.32;3.97;;;2.70;99.90;;;;;;6224541;23;20166;-85
2021/01/23 08:28:00;;;;;;;5.03;3.83;;;2.70;99.90;;;;;;6224467;23;20179;-85
2021/01/23 08:30:27;;;;;;;4.95;3.60;;;2.70;99.90;;;;;;6224891;23;20689;-84
2021/01/23 08:32:54;;;;;;;5.10;4.60;;;2.80;99.90;;;;;;6225542;23;20178;-85
2021/01/23 08:35:21;;;;;;;5.63;5.10;;;2.80;99.90;;;;;;6224899;23;20658;-84
2021/01/23 08:37:49;;;;;;;4.72;4.38;;;2.80;99.90;;;;;;6225368;23;20198;-84
2021/01/23 08:40:19;;;;;;;5.03;4.53;;;2.80;99.90;;;;;;6225105;23;20197;-83
2021/01/23 08:42:46;;;;;;;3.28;2.80;;;2.80;99.90;;;;;;6225425;23;20223;-84
2021/01/23 08:45:13;;;;;;;6.22;4.63;;;2.90;99.90;;;;;;6226069;23;20656;-83
2021/01/23 08:47:40;;;;;;;4.35;3.95;;;2.80;99.90;;;;;;6225665;23;20185;-83
2021/01/23 08:50:07;;;;;;;4.55;4.18;;;2.80;99.90;;;;;;6225777;23;20682;-83
2021/01/23 08:52:34;;;;;;;5.85;5.40;;;2.90;99.90;;;;;;6225985;23;20182;-83
2021/01/23 08:55:01;;;;;;;5.30;4.63;;;2.90;99.90;;;;;;6220706;23;20664;-84
2021/01/23 08:57:27;;;;;;;7.47;4.88;;;2.90;99.90;;;;;;6222307;23;20640;-85
2021/01/23 08:59:53;;;;;;;5.18;4.65;;;3.10;99.90;;;;;;6223567;23;20197;-85
2021/01/23 09:02:19;;;;;;;5.43;4.13;;;3.10;99.90;;;;;;6222719;23;20693;-82
2021/01/23 09:04:46;;;;;;;6.07;5.40;;;3.20;99.90;;;;;;6223239;23;20202;-83
2021/01/23 09:07:12;;;;;;;6.03;4.45;;;3.20;99.90;;;;;;6221342;23;20178;-83
2021/01/23 09:09:38;;;;;;;5.88;4.00;;;3.20;99.90;;;;;;6221714;23;20248;-82
2021/01/23 09:12:06;;;;;;;5.05;4.10;;;3.30;99.90;;;;;;6220459;23;20508;-84
2021/01/23 09:14:33;;;;;;;5.07;4.47;;;3.30;99.90;;;;;;6221664;23;20186;-84
2021/01/23 09:17:00;;;;;;;4.57;3.70;;;3.40;99.90;;;;;;6221385;23;20198;-84
2021/01/23 09:19:26;;;;;;;6.13;4.18;;;3.60;99.90;;;;;;6221440;23;20533;-83
2021/01/23 09:21:52;;;;;;;5.22;4.45;;;3.60;99.90;;;;;;6219076;23;20186;-84
2021/01/23 09:24:19;;;;;;;5.22;4.35;;;3.70;99.90;;;;;;6219583;23;20194;-84
2021/01/23 09:26:45;;;;;;;4.70;4.32;;;3.80;99.90;;;;;;6219506;23;20184;-84
2021/01/23 09:29:13;;;;;;;4.50;3.90;;;3.90;99.90;;;;;;6219216;23;20185;-84
2021/01/23 09:31:39;;;;;;;4.25;3.95;;;4.00;99.90;;;;;;6218048;23;20671;-83
2021/01/23 09:34:06;;;;;;;3.55;3.25;;;4.10;99.90;;;;;;6219851;23;20222;-84
2021/01/23 09:36:32;;;;;;;3.65;3.35;;;4.10;99.90;;;;;;6219429;23;20202;-84
2021/01/23 09:38:58;;;;;;;3.80;3.40;;;4.10;99.90;;;;;;6220029;23;20246;-83
2021/01/23 09:41:25;;;;;;;3.63;3.30;;;4.20;99.90;;;;;;6220299;23;20180;-82
2021/01/23 09:43:51;;;;;;;4.47;4.07;;;4.20;99.90;;;;;;6219616;23;20183;-84
2021/01/23 09:46:18;;;;;;;3.47;3.17;;;4.20;99.90;;;;;;6219461;23;20175;-84
2021/01/23 09:48:45;;;;;;;4.88;4.32;;;4.30;99.90;;;;;;6220509;23;20224;-84
2021/01/23 09:51:12;;;;;;;3.85;3.45;;;4.30;99.90;;;;;;6219607;23;20211;-84
2021/01/23 09:53:38;;;;;;;5.20;4.70;;;4.30;99.90;;;;;;6219530;23;20188;-84
2021/01/23 09:56:35;;;;;;;5.93;3.60;;;4.40;99.90;;;;;;6219913;23;20196;-82
2021/01/23 09:59:24;;;;;;;4.85;4.05;;;4.40;99.90;;;;;;6218783;23;20205;-84
2021/01/23 10:01:51;;;;;;;3.65;2.60;;;4.50;99.90;;;;;;6222925;23;20188;-84
2021/01/23 10:04:18;;;;;;;6.88;3.80;;;4.60;99.90;;;;;;6222249;23;20182;-82
2021/01/23 10:06:44;;;;;;;4.05;3.60;;;4.60;99.90;;;;;;6221237;23;20179;-83
2021/01/23 10:09:10;;;;;;;3.10;2.80;;;4.70;99.90;;;;;;6221203;23;20184;-82
2021/01/23 10:11:36;;;;;;;4.30;3.47;;;4.70;99.90;;;;;;6220278;23;20192;-83
2021/01/23 10:14:03;;;;;;;3.58;3.28;;;4.80;99.90;;;;;;6220294;23;20188;-83
2021/01/23 10:16:29;;;;;;;3.10;2.55;;;4.90;99.90;;;;;;6222795;23;20208;-81
2021/01/23 10:18:56;;;;;;;3.25;3.00;;;5.00;99.90;;;;;;6222400;23;20495;-83
2021/01/23 10:21:22;;;;;;;3.65;3.35;;;5.10;99.90;;;;;;6221709;23;20212;-83
2021/01/23 10:23:48;;;;;;;4.13;3.72;;;5.10;99.90;;;;;;6221407;23;20180;-84
2021/01/23 10:26:15;;;;;;;4.00;2.92;;;5.10;99.90;;;;;;6222804;23;20498;-84
2021/01/23 10:28:41;;;;;;;3.72;3.42;;;5.20;99.90;;;;;;6224891;23;20189;-84
2021/01/23 10:31:07;;;;;;;6.57;3.05;;;5.20;99.90;;;;;;6224016;23;20605;-83
2021/01/23 10:33:33;;;;;;;2.85;2.63;;;5.20;99.90;;;;;;6223995;23;20181;-84
2021/01/23 10:36:00;;;;;;;3.75;3.45;;;5.30;99.90;;;;;;6223732;23;20192;-84
2021/01/23 10:38:26;;;;;;;4.18;3.80;;;5.20;99.90;;;;;;6222773;23;20189;-85
2021/01/23 10:40:54;;;;;;;3.45;3.25;;;5.30;99.90;;;;;;6220861;23;20198;-84
2021/01/23 10:43:20;;;;;;;3.25;2.95;;;5.20;99.90;;;;;;6223107;23;20282;-84
2021/01/23 10:45:47;;;;;;;3.53;3.22;;;5.20;99.90;;;;;;6223639;23;20241;-84
2021/01/23 10:48:13;;;;;;;7.10;3.22;;;5.20;99.90;;;;;;6222770;23;20233;-83
2021/01/23 10:50:40;;;;;;;3.65;3.33;;;5.20;99.90;;;;;;6222543;23;20218;-84
2021/01/23 10:53:07;;;;;;;3.65;3.38;;;5.20;99.90;;;;;;6223505;23;20183;-84
2021/01/23 10:55:33;;;;;;;3.33;3.03;;;5.30;99.90;;;;;;6224860;23;20251;-84
2021/01/23 10:57:59;;;;;;;3.53;3.17;;;5.30;99.90;;;;;;6222205;23;20582;-85
2021/01/23 11:00:26;;;;;;;2.00;1.90;;;5.40;99.90;;;;;;6219393;23;20287;-84
2021/01/23 11:02:52;;;;;;;3.80;2.58;;;5.40;99.90;;;;;;6217435;23;20500;-84
2021/01/23 11:05:23;;;;;;;3.97;3.67;;;5.40;99.90;;;;;;6217418;23;20497;-88
2021/01/23 11:07:52;;;;;;;3.33;3.03;;;5.40;99.90;;;;;;6214759;23;20658;-87
2021/01/23 11:10:27;;;;;;;3.47;3.17;;;5.60;99.90;;;;;;6215756;23;20241;-89
2021/01/23 11:12:56;;;;;;;3.25;3.00;;;5.70;99.90;;;;;;6219873;23;20175;-90
2021/01/23 11:15:23;;;;;;;3.80;3.50;;;5.90;99.90;;;;;;6217971;23;20181;-86
2021/01/23 11:17:49;;;;;;;3.30;2.92;;;6.00;99.90;;;;;;6215933;23;20208;-88
2021/01/23 11:20:18;;;;;;;3.00;2.70;;;6.10;99.90;;;;;;6215820;23;20196;-90
2021/01/23 11:22:45;;;;;;;5.43;3.22;;;6.20;99.90;;;;;;6214108;23;20178;-86
2021/01/23 11:25:13;;;;;;;3.30;2.97;;;6.20;99.90;;;;;;6216003;23;20193;-87
2021/01/23 11:27:40;;;;;;;3.00;2.80;;;6.50;99.90;;;;;;6215678;23;20257;-88
2021/01/23 11:30:09;;;;;;;3.55;3.28;;;6.60;99.90;;;;;;6215170;23;20208;-86
2021/01/23 11:32:35;;;;;;;3.15;2.85;;;6.70;99.90;;;;;;6216207;23;20709;-89
2021/01/23 11:35:01;;;;;;;3.20;2.97;;;6.80;99.90;;;;;;6217029;23;20185;-85
2021/01/23 11:37:28;;;;;;;3.03;2.83;;;7.00;99.90;;;;;;6217399;23;20206;-86
2021/01/23 11:39:54;;;;;;;3.25;2.95;;;7.20;99.90;;;;;;6215727;23;20568;-87
2021/01/23 11:42:20;;;;;;;3.38;3.17;;;7.30;99.90;;;;;;6216604;23;20178;-89
2021/01/23 11:44:47;;;;;;;3.75;3.45;;;7.40;99.90;;;;;;6215682;23;20170;-89
2021/01/23 11:47:14;;;;;;;3.00;2.80;;;7.50;99.90;;;;;;6215825;23;20483;-86
2021/01/23 11:49:40;;;;;;;3.50;2.83;;;7.70;99.90;;;;;;6214892;23;20771;-89
2021/01/23 11:52:06;;;;;;;2.63;2.42;;;7.70;99.90;;;;;;6214952;23;20182;-89
2021/01/23 11:54:32;;;;;;;5.68;2.33;;;7.80;99.90;;;;;;6215309;23;20178;-87
2021/01/23 11:56:59;;;;;;;3.40;2.33;;;7.90;99.90;;;;;;6215053;23;20689;-85
2021/01/23 11:59:25;;;;;;;2.42;2.22;;;8.00;99.90;;;;;;6214871;23;20688;-87
2021/01/23 12:01:52;;;;;;;2.28;2.17;;;8.00;99.90;;;;;;6214962;23;20201;-85
2021/01/23 12:04:19;;;;;;;2.50;2.30;;;7.90;99.90;;;;;;6215285;23;20213;-87
2021/01/23 12:06:46;;;;;;;3.58;3.28;;;7.90;99.90;;;;;;6216802;23;20174;-84
2021/01/23 12:09:12;;;;;;;2.92;2.72;;;7.70;99.90;;;;;;6223043;23;20182;-85
2021/01/23 12:11:38;;;;;;;2.55;2.35;;;7.60;99.90;;;;;;6218444;23;20232;-86
2021/01/23 12:14:26;;;;;;;3.05;2.78;;;7.40;99.90;;;;;;6215603;23;20555;-89
2021/01/23 12:16:53;;;;;;;3.47;3.17;;;7.30;99.90;;;;;;6215584;23;20522;-86
2021/01/23 12:19:19;;;;;;;3.00;2.80;;;7.30;99.90;;;;;;6216117;23;20248;-85
2021/01/23 12:21:46;;;;;;;2.67;2.47;;;7.20;99.90;;;;;;6219648;23;20213;-86
2021/01/23 12:24:14;;;;;;;2.83;2.55;;;7.20;99.90;;;;;;6216240;23;20189;-87
2021/01/23 12:26:40;;;;;;;4.90;2.95;;;7.20;99.90;;;;;;6215564;23;20182;-86
2021/01/23 12:29:07;;;;;;;3.28;3.03;;;7.00;99.90;;;;;;6216559;23;20182;-86
2021/01/23 12:31:33;;;;;;;5.43;3.05;;;7.00;99.90;;;;;;6214699;23;20182;-86
2021/01/23 12:34:00;;;;;;;3.40;3.20;;;7.00;99.90;;;;;;6215255;23;20201;-86
2021/01/23 12:36:29;;;;;;;3.67;3.38;;;6.90;99.90;;;;;;6215000;23;20202;-87
2021/01/23 12:38:56;;;;;;;2.38;2.10;;;6.90;99.90;;;;;;6215889;23;20182;-88
2021/01/23 12:41:22;;;;;;;3.58;3.28;;;6.90;99.90;;;;;;6214639;23;20198;-89
2021/01/23 12:43:49;;;;;;;4.47;3.10;;;6.80;99.90;;;;;;6214941;23;20182;-89
2021/01/23 12:46:15;;;;;;;3.83;3.53;;;6.70;99.90;;;;;;6215263;23;20200;-86
2021/01/23 12:48:42;;;;;;;6.13;3.90;;;6.70;99.90;;;;;;6216636;23;20232;-88
2021/01/23 12:51:09;;;;;;;2.92;2.65;;;6.70;99.90;;;;;;6215486;23;20205;-90
2021/01/23 12:53:35;;;;;;;3.50;3.20;;;6.60;99.90;;;;;;6215473;23;20208;-89
2021/01/23 12:56:02;;;;;;;2.75;2.65;;;6.70;99.90;;;;;;6214732;23;20622;-88
2021/01/23 12:58:28;;;;;;;3.65;3.35;;;6.80;99.90;;;;;;6216731;23;20544;-90
2021/01/23 13:00:54;;;;;;;3.35;3.10;;;7.00;99.90;;;;;;6214717;23;20269;-88
2021/01/23 13:03:20;;;;;;;4.43;3.30;;;7.10;99.90;;;;;;6214736;23;20563;-90